createdAt,value
2018-01-24T00:00:52.339Z,74.17
2018-01-24T00:01:52.806Z,74.17
2018-01-24T00:02:53.276Z,74.22
2018-01-24T00:03:53.740Z,74.22
2018-01-24T00:04:54.210Z,74.22
2018-01-24T00:05:54.674Z,74.19
2018-01-24T00:06:55.143Z,74.22
2018-01-24T00:07:55.610Z,74.21
2018-01-24T00:08:56.082Z,74.19
2018-01-24T00:09:56.545Z,74.17
2018-01-24T00:10:57.014Z,74.17
2018-01-24T00:11:57.480Z,74.17
2018-01-24T00:12:57.948Z,74.14
2018-01-24T00:13:58.414Z,74.19
2018-01-24T00:14:58.891Z,74.17
2018-01-24T00:15:59.350Z,74.21
2018-01-24T00:16:59.823Z,74.18
2018-01-24T00:18:00.289Z,74.16
2018-01-24T00:19:00.759Z,74.14
2018-01-24T00:20:01.220Z,74.11
2018-01-24T00:21:01.693Z,74.13
2018-01-24T00:22:02.156Z,74.13
2018-01-24T00:23:02.628Z,74.09
2018-01-24T00:24:03.090Z,74.06
2018-01-24T00:25:03.560Z,74.06
2018-01-24T00:26:04.027Z,74.04
2018-01-24T00:27:04.494Z,74.04
2018-01-24T00:28:04.960Z,74.01
2018-01-24T00:29:05.429Z,74.04
2018-01-24T00:30:05.895Z,74.01
2018-01-24T00:31:06.363Z,74.03
2018-01-24T00:32:06.830Z,74.03
2018-01-24T00:33:07.299Z,74.01
2018-01-24T00:34:07.763Z,74.01
2018-01-24T00:35:08.232Z,73.98
2018-01-24T00:36:08.698Z,74.01
2018-01-24T00:37:09.166Z,74.01
2018-01-24T00:38:09.635Z,74.03
2018-01-24T00:39:10.102Z,74.03
2018-01-24T00:40:10.570Z,74.03
2018-01-24T00:41:11.037Z,74.06
2018-01-24T00:42:11.503Z,74.05
2018-01-24T00:43:11.970Z,74.05
2018-01-24T00:44:12.439Z,74.05
2018-01-24T00:45:12.907Z,74.10
2018-01-24T00:46:13.374Z,74.08
2018-01-24T00:47:13.841Z,74.10
2018-01-24T00:48:14.315Z,74.07
2018-01-24T00:49:14.777Z,74.08
2018-01-24T00:50:15.243Z,74.08
2018-01-24T00:51:15.710Z,74.07
2018-01-24T00:52:16.179Z,74.07
2018-01-24T00:53:16.646Z,74.05
2018-01-24T00:54:17.113Z,74.05
2018-01-24T00:55:17.581Z,74.05
2018-01-24T00:56:18.048Z,74.05
2018-01-24T00:57:18.516Z,74.05
2018-01-24T00:58:18.981Z,74.05
2018-01-24T00:59:19.449Z,74.02
2018-01-24T01:00:19.919Z,74.05
2018-01-24T01:01:20.386Z,74.07
2018-01-24T01:02:20.852Z,74.07
2018-01-24T01:03:21.320Z,74.10
2018-01-24T01:04:21.787Z,74.07
2018-01-24T01:05:22.254Z,74.10
2018-01-24T01:06:22.720Z,74.07
2018-01-24T01:07:23.187Z,74.05
2018-01-24T01:08:23.656Z,74.09
2018-01-24T01:09:24.122Z,74.09
2018-01-24T01:10:24.589Z,74.09
2018-01-24T01:11:25.058Z,74.09
2018-01-24T01:12:25.527Z,74.09
2018-01-24T01:13:25.993Z,74.09
2018-01-24T01:14:26.460Z,74.14
2018-01-24T01:15:26.927Z,74.14
2018-01-24T01:16:27.394Z,74.14
2018-01-24T01:17:27.862Z,74.16
2018-01-24T01:18:28.329Z,74.19
2018-01-24T01:19:28.799Z,74.18
2018-01-24T01:20:29.264Z,74.19
2018-01-24T01:21:29.733Z,74.19
2018-01-24T01:22:30.197Z,74.18
2018-01-24T01:23:30.668Z,74.21
2018-01-24T01:24:31.134Z,74.23
2018-01-24T01:25:31.601Z,74.26
2018-01-24T01:26:32.067Z,74.28
2018-01-24T01:27:32.536Z,74.23
2018-01-24T01:28:33.005Z,74.23
2018-01-24T01:29:33.470Z,74.23
2018-01-24T01:30:33.937Z,74.23
2018-01-24T01:31:34.404Z,74.28
2018-01-24T01:32:34.873Z,74.33
2018-01-24T01:33:35.341Z,74.33
2018-01-24T01:34:35.806Z,74.33
2018-01-24T01:35:36.275Z,74.31
2018-01-24T01:36:36.741Z,74.33
2018-01-24T01:37:37.211Z,74.35
2018-01-24T01:38:37.677Z,74.33
2018-01-24T01:39:38.144Z,74.35
2018-01-24T01:40:38.612Z,74.38
2018-01-24T01:41:39.081Z,74.35
2018-01-24T01:42:39.545Z,74.35
2018-01-24T01:43:40.015Z,74.38
2018-01-24T01:44:40.481Z,74.38
2018-01-24T01:45:40.951Z,74.38
2018-01-24T01:46:41.413Z,74.38
2018-01-24T01:47:41.883Z,74.38
2018-01-24T01:48:42.355Z,74.43
2018-01-24T01:49:42.820Z,74.48
2018-01-24T01:50:43.285Z,74.48
2018-01-24T01:51:43.753Z,74.55
2018-01-24T01:52:44.219Z,74.55
2018-01-24T01:53:44.688Z,74.55
2018-01-24T01:54:45.153Z,74.55
2018-01-24T01:55:45.621Z,74.53
2018-01-24T01:56:46.089Z,74.58
2018-01-24T01:57:46.557Z,74.58
2018-01-24T01:58:47.023Z,74.58
2018-01-24T01:59:47.490Z,74.60
2018-01-24T02:00:47.958Z,74.63
2018-01-24T02:01:48.426Z,74.68
2018-01-24T02:02:48.892Z,74.65
2018-01-24T02:03:49.361Z,74.65
2018-01-24T02:04:49.829Z,74.68
2018-01-24T02:05:50.296Z,74.63
2018-01-24T02:06:50.762Z,74.65
2018-01-24T02:07:51.229Z,74.63
2018-01-24T02:08:51.697Z,74.68
2018-01-24T02:09:52.163Z,74.68
2018-01-24T02:10:52.631Z,74.68
2018-01-24T02:11:53.098Z,74.68
2018-01-24T02:12:53.566Z,74.73
2018-01-24T02:13:54.034Z,74.78
2018-01-24T02:14:54.502Z,74.78
2018-01-24T02:15:54.967Z,74.82
2018-01-24T02:16:55.435Z,74.87
2018-01-24T02:17:55.903Z,74.87
2018-01-24T02:18:56.370Z,74.90
2018-01-24T02:19:56.837Z,74.92
2018-01-24T02:20:57.304Z,74.95
2018-01-24T02:21:57.772Z,74.97
2018-01-24T02:22:58.238Z,75.07
2018-01-24T02:23:58.707Z,75.11
2018-01-24T02:24:59.175Z,75.16
2018-01-24T02:25:59.646Z,75.24
2018-01-24T02:27:00.107Z,75.26
2018-01-24T02:28:00.577Z,75.29
2018-01-24T02:29:01.046Z,75.31
2018-01-24T02:30:01.513Z,75.34
2018-01-24T02:31:01.983Z,75.36
2018-01-24T02:32:02.445Z,75.41
2018-01-24T02:33:02.915Z,75.43
2018-01-24T02:34:03.387Z,75.46
2018-01-24T02:35:03.852Z,75.51
2018-01-24T02:36:04.319Z,75.56
2018-01-24T02:37:04.786Z,75.60
2018-01-24T02:38:05.251Z,75.60
2018-01-24T02:39:05.722Z,75.70
2018-01-24T02:40:06.184Z,75.70
2018-01-24T02:41:06.659Z,75.70
2018-01-24T02:42:07.121Z,75.68
2018-01-24T02:43:07.590Z,75.73
2018-01-24T02:44:08.055Z,75.80
2018-01-24T02:45:08.525Z,75.80
2018-01-24T02:46:08.990Z,75.82
2018-01-24T02:47:09.458Z,75.85
2018-01-24T02:48:09.928Z,75.85
2018-01-24T02:49:10.392Z,75.85
2018-01-24T02:50:10.860Z,75.85
2018-01-24T02:51:11.331Z,75.90
2018-01-24T02:52:11.795Z,75.90
2018-01-24T02:53:12.263Z,75.87
2018-01-24T02:54:12.730Z,75.90
2018-01-24T02:55:13.196Z,75.86
2018-01-24T02:56:13.669Z,75.86
2018-01-24T02:57:14.139Z,75.86
2018-01-24T02:58:14.605Z,75.88
2018-01-24T02:59:15.066Z,75.86
2018-01-24T03:00:15.533Z,75.88
2018-01-24T03:01:16.001Z,75.86
2018-01-24T03:02:16.469Z,75.86
2018-01-24T03:03:16.942Z,75.91
2018-01-24T03:04:17.406Z,75.91
2018-01-24T03:05:17.872Z,75.93
2018-01-24T03:06:18.340Z,75.95
2018-01-24T03:07:19.010Z,75.96
2018-01-24T03:08:19.274Z,75.96
2018-01-24T03:09:19.742Z,75.96
2018-01-24T03:10:20.210Z,75.96
2018-01-24T03:11:20.675Z,75.98
2018-01-24T03:12:21.142Z,76.01
2018-01-24T03:13:21.612Z,76.01
2018-01-24T03:14:22.079Z,76.01
2018-01-24T03:15:22.547Z,76.06
2018-01-24T03:16:23.013Z,76.06
2018-01-24T03:17:23.483Z,76.13
2018-01-24T03:18:23.949Z,76.16
2018-01-24T03:19:24.421Z,76.18
2018-01-24T03:20:24.885Z,76.23
2018-01-24T03:21:25.356Z,76.25
2018-01-24T03:23:26.290Z,76.30
2018-01-24T03:24:26.759Z,76.35
2018-01-24T03:25:27.227Z,76.35
2018-01-24T03:26:27.694Z,76.36
2018-01-24T03:27:28.164Z,76.33
2018-01-24T03:28:28.629Z,76.33
2018-01-24T03:29:29.096Z,76.33
2018-01-24T03:30:29.562Z,76.33
2018-01-24T03:31:30.037Z,76.38
2018-01-24T03:32:30.500Z,76.36
2018-01-24T03:33:30.967Z,76.38
2018-01-24T03:34:31.435Z,76.41
2018-01-24T03:35:31.900Z,76.41
2018-01-24T03:37:32.838Z,76.50
2018-01-24T03:38:33.306Z,76.53
2018-01-24T03:39:33.775Z,76.51
2018-01-24T03:40:34.240Z,76.51
2018-01-24T03:41:34.710Z,76.51
2018-01-24T03:42:35.171Z,76.46
2018-01-24T03:43:35.645Z,76.42
2018-01-24T03:44:36.108Z,76.41
2018-01-24T03:45:36.579Z,76.37
2018-01-24T03:47:37.508Z,76.30
2018-01-24T03:48:37.979Z,76.30
2018-01-24T03:49:38.449Z,76.23
2018-01-24T03:51:39.384Z,76.23
2018-01-24T03:53:40.318Z,76.23
2018-01-24T03:54:40.783Z,76.21
2018-01-24T03:56:41.720Z,76.23
2018-01-24T03:57:42.191Z,76.26
2018-01-24T03:58:42.657Z,76.28
2018-01-24T03:59:43.125Z,76.33
2018-01-24T04:00:43.594Z,76.35
2018-01-24T04:01:44.061Z,76.35
2018-01-24T04:02:44.527Z,76.38
2018-01-24T04:03:44.995Z,76.33
2018-01-24T04:04:45.463Z,76.38
2018-01-24T04:05:45.930Z,76.45
2018-01-24T04:06:46.396Z,76.43
2018-01-24T04:07:46.866Z,76.48
2018-01-24T04:09:47.803Z,76.50
2018-01-24T04:10:48.268Z,76.53
2018-01-24T04:11:48.736Z,76.50
2018-01-24T04:12:49.206Z,76.53
2018-01-24T04:13:49.667Z,76.50
2018-01-24T04:15:50.609Z,76.48
2018-01-24T04:16:51.078Z,76.53
2018-01-24T04:17:51.537Z,76.58
2018-01-24T04:18:52.012Z,76.60
2018-01-24T04:20:52.940Z,76.67
2018-01-24T04:21:53.413Z,76.72
2018-01-24T04:22:53.880Z,76.81
2018-01-24T04:23:54.347Z,76.91
2018-01-24T04:24:54.815Z,76.96
2018-01-24T04:27:56.213Z,77.20
2018-01-24T04:29:57.155Z,77.29
2018-01-24T04:30:57.623Z,77.32
2018-01-24T04:32:10.230Z,77.39
2018-01-24T04:32:58.556Z,77.38
2018-01-24T04:33:59.021Z,77.39
2018-01-24T04:34:59.493Z,77.41
2018-01-24T04:35:59.960Z,77.41
2018-01-24T04:37:00.427Z,77.41
2018-01-24T04:38:00.890Z,77.42
2018-01-24T04:39:01.364Z,77.44
2018-01-24T04:40:01.831Z,77.41
2018-01-24T04:41:02.300Z,77.44
2018-01-24T04:43:03.269Z,77.49
2018-01-24T04:45:04.166Z,77.52
2018-01-24T04:46:04.637Z,77.52
2018-01-24T04:47:05.105Z,77.55
2018-01-24T04:48:05.572Z,77.56
2018-01-24T04:50:06.708Z,77.64
2018-01-24T04:51:06.977Z,77.69
2018-01-24T04:52:07.444Z,77.73
2018-01-24T04:53:08.114Z,77.78
2018-01-24T04:54:08.378Z,77.90
2018-01-24T04:55:08.848Z,77.97
2018-01-24T04:56:09.315Z,78.04
2018-01-24T04:57:09.778Z,78.09
2018-01-24T05:00:11.185Z,78.23
2018-01-24T05:01:11.649Z,78.26
2018-01-24T05:05:13.519Z,78.21
2018-01-24T05:06:13.988Z,78.19
2018-01-24T05:07:14.462Z,78.19
2018-01-24T05:08:14.931Z,78.19
2018-01-24T05:09:15.396Z,78.17
2018-01-24T05:10:15.861Z,78.13
2018-01-24T05:11:16.337Z,78.16
2018-01-24T05:12:16.794Z,78.13
2018-01-24T05:13:17.267Z,78.13
2018-01-24T05:14:17.736Z,78.15
2018-01-24T05:16:18.668Z,78.18
2018-01-24T05:17:19.138Z,78.18
2018-01-24T05:19:20.076Z,78.23
2018-01-24T05:20:20.542Z,78.28
2018-01-24T05:21:21.005Z,78.28
2018-01-24T05:22:21.476Z,78.30
2018-01-24T05:23:21.941Z,78.37
2018-01-24T05:24:22.414Z,78.40
2018-01-24T05:25:23.083Z,78.42
2018-01-24T05:26:23.350Z,78.42
2018-01-24T05:27:23.816Z,78.49
2018-01-24T05:28:24.284Z,78.52
2018-01-24T05:29:24.750Z,78.56
2018-01-24T05:30:25.215Z,78.57
2018-01-24T05:31:25.686Z,78.56
2018-01-24T05:32:26.157Z,78.57
2018-01-24T05:33:26.622Z,78.59
2018-01-24T05:34:27.084Z,78.61
2018-01-24T05:36:28.026Z,78.67
2018-01-24T05:37:28.494Z,78.67
2018-01-24T05:38:28.962Z,78.72
2018-01-24T05:39:29.428Z,78.77
2018-01-24T05:40:29.898Z,78.76
2018-01-24T05:42:30.869Z,78.77
2018-01-24T05:43:31.302Z,78.77
2018-01-24T05:44:31.768Z,78.74
2018-01-24T05:45:32.230Z,78.77
2018-01-24T05:46:32.909Z,78.77
2018-01-24T05:48:33.638Z,78.77
2018-01-24T05:49:34.306Z,78.78
2018-01-24T05:50:34.577Z,78.82
2018-01-24T05:51:35.045Z,78.87
2018-01-24T05:52:35.512Z,78.84
2018-01-24T05:55:36.917Z,78.96
2018-01-24T05:56:37.383Z,79.02
2018-01-24T05:58:38.321Z,79.06
2018-01-24T05:59:38.789Z,79.06
2018-01-24T06:00:39.257Z,79.11
2018-01-24T06:01:39.724Z,79.14
2018-01-24T06:02:40.196Z,79.23
2018-01-24T06:03:40.661Z,79.25
2018-01-24T06:04:41.127Z,79.32
2018-01-24T06:05:41.592Z,79.35
2018-01-24T06:06:42.064Z,79.40
2018-01-24T06:07:42.533Z,79.42
2018-01-24T06:08:43.003Z,79.49
2018-01-24T06:09:43.469Z,79.49
2018-01-24T06:10:43.938Z,79.47
2018-01-24T06:11:44.404Z,79.45
2018-01-24T06:12:44.874Z,79.45
2018-01-24T06:13:45.342Z,79.50
2018-01-24T06:14:45.808Z,79.50
2018-01-24T06:15:46.278Z,79.47
2018-01-24T06:16:46.748Z,79.50
2018-01-24T06:17:47.216Z,79.45
2018-01-24T06:18:47.680Z,79.46
2018-01-24T06:19:48.152Z,79.44
2018-01-24T06:20:48.619Z,79.46
2018-01-24T06:21:49.087Z,79.46
2018-01-24T06:22:49.553Z,79.53
2018-01-24T06:23:50.024Z,79.51
2018-01-24T06:24:50.497Z,79.56
2018-01-24T06:25:50.956Z,79.58
2018-01-24T06:26:51.428Z,79.60
2018-01-24T06:27:51.895Z,79.60
2018-01-24T06:28:52.365Z,79.58
2018-01-24T06:29:52.831Z,79.58
2018-01-24T06:30:53.300Z,79.58
2018-01-24T06:31:53.768Z,79.61
2018-01-24T06:32:54.235Z,79.65
2018-01-24T06:33:54.705Z,79.66
2018-01-24T06:34:55.169Z,79.75
2018-01-24T06:35:55.644Z,79.84
2018-01-24T06:36:56.109Z,79.85
2018-01-24T06:38:57.046Z,80.03
2018-01-24T06:39:57.513Z,80.12
2018-01-24T06:40:57.982Z,80.19
2018-01-24T06:41:58.446Z,80.26
2018-01-24T06:43:59.387Z,80.40
2018-01-24T06:44:59.856Z,80.50
2018-01-24T06:46:00.319Z,80.54
2018-01-24T06:47:00.794Z,80.52
2018-01-24T06:48:01.256Z,80.52
2018-01-24T06:49:01.730Z,80.57
2018-01-24T06:50:02.201Z,80.55
2018-01-24T06:51:02.666Z,80.51
2018-01-24T06:52:03.133Z,80.53
2018-01-24T06:53:03.600Z,80.56
2018-01-24T06:54:04.069Z,80.60
2018-01-24T06:55:04.538Z,80.60
2018-01-24T06:56:05.009Z,80.61
2018-01-24T06:57:05.479Z,80.70
2018-01-24T06:58:05.946Z,80.68
2018-01-24T06:59:06.414Z,80.71
2018-01-24T07:00:06.877Z,80.72
2018-01-24T07:01:07.352Z,80.68
2018-01-24T07:02:07.819Z,80.73
2018-01-24T07:03:08.287Z,80.73
2018-01-24T07:04:08.750Z,80.70
2018-01-24T07:05:09.425Z,80.71
2018-01-24T07:06:09.691Z,80.76
2018-01-24T07:07:10.159Z,80.71
2018-01-24T07:09:11.096Z,80.70
2018-01-24T07:10:11.564Z,80.62
2018-01-24T07:11:12.034Z,80.56
2018-01-24T07:12:12.499Z,80.54
2018-01-24T07:13:12.971Z,80.50
2018-01-24T07:14:13.440Z,80.38
2018-01-24T07:15:13.907Z,80.41
2018-01-24T07:16:14.379Z,80.30
2018-01-24T07:17:14.845Z,80.32
2018-01-24T07:18:15.313Z,80.30
2018-01-24T07:19:15.981Z,80.28
2018-01-24T07:20:16.454Z,80.26
2018-01-24T07:21:16.719Z,80.24
2018-01-24T07:22:17.184Z,80.18
2018-01-24T07:23:17.654Z,80.11
2018-01-24T07:24:18.128Z,80.10
2018-01-24T07:25:18.589Z,80.11
2018-01-24T07:26:19.065Z,80.02
2018-01-24T07:28:20.003Z,80.07
2018-01-24T07:29:20.470Z,80.10
2018-01-24T07:31:21.410Z,80.01
2018-01-24T07:32:21.879Z,80.02
2018-01-24T07:33:22.346Z,79.90
2018-01-24T07:34:22.810Z,79.88
2018-01-24T07:35:23.286Z,79.88
2018-01-24T07:36:23.748Z,79.91
2018-01-24T07:37:24.221Z,79.86
2018-01-24T07:38:24.683Z,79.82
2018-01-24T07:39:25.159Z,79.80
2018-01-24T07:40:25.628Z,79.88
2018-01-24T07:41:26.090Z,79.78
2018-01-24T07:42:26.571Z,79.78
2018-01-24T07:43:27.033Z,79.79
2018-01-24T07:44:27.496Z,79.65
2018-01-24T07:45:27.971Z,79.70
2018-01-24T07:46:28.440Z,79.77
2018-01-24T07:47:28.908Z,79.75
2018-01-24T07:48:29.377Z,79.76
2018-01-24T07:49:29.847Z,79.76
2018-01-24T07:50:30.316Z,79.78
2018-01-24T07:51:30.779Z,79.76
2018-01-24T07:52:31.288Z,79.91
2018-01-24T07:53:31.714Z,79.88
2018-01-24T07:54:32.189Z,79.85
2018-01-24T07:55:32.658Z,79.91
2018-01-24T07:56:33.130Z,79.96
2018-01-24T07:57:33.594Z,79.99
2018-01-24T07:58:34.064Z,80.04
2018-01-24T08:00:35.004Z,80.07
2018-01-24T08:03:36.408Z,80.24
2018-01-24T08:04:36.881Z,80.22
2018-01-24T08:05:37.348Z,80.27
2018-01-24T08:06:37.816Z,80.33
2018-01-24T08:07:38.287Z,80.33
2018-01-24T08:08:38.750Z,80.38
2018-01-24T08:11:40.163Z,80.44
2018-01-24T08:12:40.631Z,80.44
2018-01-24T08:13:41.100Z,80.54
2018-01-24T08:14:41.570Z,80.57
2018-01-24T08:15:42.036Z,80.57
2018-01-24T08:16:42.507Z,80.55
2018-01-24T08:17:42.978Z,80.56
2018-01-24T08:19:43.911Z,80.71
2018-01-24T08:21:45.057Z,80.82
2018-01-24T08:22:45.324Z,80.82
2018-01-24T08:23:45.795Z,80.78
2018-01-24T08:24:46.264Z,80.78
2018-01-24T08:25:46.733Z,80.84
2018-01-24T08:26:47.197Z,80.89
2018-01-24T08:27:47.673Z,80.90
2018-01-24T08:28:48.140Z,80.86
2018-01-24T08:29:48.609Z,80.87
2018-01-24T08:30:49.074Z,80.83
2018-01-24T08:31:49.548Z,80.74
2018-01-24T08:32:50.018Z,80.62
2018-01-24T08:33:50.487Z,80.72
2018-01-24T08:34:50.957Z,80.58
2018-01-24T08:35:51.426Z,80.62
2018-01-24T08:36:51.896Z,80.61
2018-01-24T08:37:52.365Z,80.56
2018-01-24T08:38:52.838Z,80.44
2018-01-24T08:39:53.301Z,80.31
2018-01-24T08:41:05.408Z,80.20
2018-01-24T08:41:54.245Z,80.24
2018-01-24T08:42:54.714Z,80.20
2018-01-24T08:43:55.232Z,80.14
2018-01-24T08:45:56.124Z,80.04
2018-01-24T08:46:56.590Z,80.00
2018-01-24T08:47:57.064Z,80.01
2018-01-24T08:48:57.533Z,79.95
2018-01-24T08:50:58.672Z,79.81
2018-01-24T08:51:58.943Z,79.80
2018-01-24T08:53:59.884Z,79.71
2018-01-24T08:55:00.353Z,79.67
2018-01-24T08:58:01.761Z,79.48
2018-01-24T08:59:02.233Z,79.40
2018-01-24T09:00:02.707Z,79.27
2018-01-24T09:01:03.178Z,79.24
2018-01-24T09:02:03.648Z,79.21
2018-01-24T09:03:04.118Z,79.18
2018-01-24T09:04:04.609Z,79.17
2018-01-24T09:05:05.059Z,79.18
2018-01-24T09:06:05.529Z,79.23
2018-01-24T09:07:06.001Z,79.26
2018-01-24T09:08:06.471Z,79.30
2018-01-24T09:09:06.939Z,79.37
2018-01-24T09:10:07.415Z,79.53
2018-01-24T09:11:07.884Z,79.64
2018-01-24T09:12:08.357Z,79.63
2018-01-24T09:13:08.826Z,79.72
2018-01-24T09:14:09.499Z,79.83
2018-01-24T09:15:09.770Z,79.85
2018-01-24T09:16:10.239Z,79.89
2018-01-24T09:17:10.716Z,79.81
2018-01-24T09:18:11.182Z,79.78
2018-01-24T09:19:11.658Z,79.85
2018-01-24T09:20:12.130Z,79.84
2018-01-24T09:21:12.594Z,79.81
2018-01-24T09:22:13.074Z,79.69
2018-01-24T09:23:13.539Z,79.59
2018-01-24T09:25:14.487Z,79.27
2018-01-24T09:26:14.955Z,79.19
2018-01-24T09:27:15.422Z,79.19
2018-01-24T09:29:16.371Z,79.01
2018-01-24T09:30:16.841Z,79.12
2018-01-24T09:31:17.310Z,79.09
2018-01-24T09:32:20.926Z,79.04
2018-01-24T09:33:18.258Z,79.07
2018-01-24T09:34:18.729Z,78.95
2018-01-24T09:35:19.200Z,79.02
2018-01-24T09:36:19.676Z,78.53
2018-01-24T09:37:20.148Z,78.23
2018-01-24T09:38:20.615Z,78.25
2018-01-24T09:40:21.563Z,77.85
2018-01-24T09:41:22.036Z,77.62
2018-01-24T09:42:22.503Z,77.03
2018-01-24T09:43:22.979Z,76.76
2018-01-24T09:44:23.453Z,76.53
2018-01-24T09:45:23.930Z,76.39
2018-01-24T09:46:24.397Z,76.02
2018-01-24T09:48:25.375Z,75.11
2018-01-24T09:49:26.013Z,74.90
2018-01-24T09:50:26.286Z,74.70
2018-01-24T09:51:26.761Z,73.38
2018-01-24T09:52:27.234Z,73.62
2018-01-24T09:53:39.444Z,72.78
2018-01-24T09:54:28.179Z,72.02
2018-01-24T09:56:29.123Z,71.12
2018-01-24T09:57:29.607Z,70.72
2018-01-24T09:59:30.544Z,70.18
2018-01-24T10:00:31.018Z,70.74
2018-01-24T10:02:31.964Z,69.60
2018-01-24T10:03:32.434Z,69.85
2018-01-24T10:04:32.909Z,69.47
2018-01-24T10:05:33.384Z,69.61
2018-01-24T10:06:33.857Z,69.41
2018-01-24T10:07:34.323Z,69.74
2018-01-24T10:08:34.800Z,68.60
2018-01-24T10:09:35.275Z,69.22
2018-01-24T10:10:35.746Z,68.44
2018-01-24T10:12:36.696Z,68.75
2018-01-24T10:13:48.452Z,68.29
2018-01-24T10:14:37.636Z,67.95
2018-01-24T10:15:38.116Z,67.70
2018-01-24T10:16:38.591Z,68.38
2018-01-24T10:17:39.062Z,67.91
2018-01-24T10:18:39.532Z,67.82
2018-01-24T10:19:40.010Z,67.34
2018-01-24T10:21:40.950Z,66.18
2018-01-24T10:22:41.428Z,66.09
2018-01-24T10:23:41.902Z,66.15
2018-01-24T10:24:42.373Z,65.73
2018-01-24T10:25:42.851Z,65.63
2018-01-24T10:27:43.792Z,65.27
2018-01-24T10:28:44.271Z,64.52
2018-01-24T10:29:44.745Z,65.13
2018-01-24T10:30:45.223Z,64.87
2018-01-24T10:32:46.167Z,63.65
2018-01-24T10:33:46.639Z,63.47
2018-01-24T10:34:47.109Z,63.43
2018-01-24T10:35:47.589Z,63.19
2018-01-24T10:36:48.062Z,62.42
2018-01-24T10:37:48.536Z,62.82
2018-01-24T10:38:49.006Z,62.94
2018-01-24T10:39:49.483Z,62.56
2018-01-24T10:40:49.959Z,62.82
2018-01-24T10:41:50.431Z,62.42
2018-01-24T10:42:50.904Z,62.48
2018-01-24T10:43:51.381Z,61.54
2018-01-24T10:44:51.855Z,62.09
2018-01-24T10:45:52.325Z,61.51
2018-01-24T10:46:52.803Z,62.13
2018-01-24T10:47:53.278Z,61.81
2018-01-24T10:48:53.747Z,61.79
2018-01-24T10:49:54.228Z,61.04
2018-01-24T10:50:54.701Z,59.91
2018-01-24T10:51:55.175Z,59.41
2018-01-24T10:52:55.647Z,60.08
2018-01-24T10:53:56.124Z,60.37
2018-01-24T10:54:56.597Z,61.00
2018-01-24T10:55:57.067Z,60.90
2018-01-24T10:56:57.574Z,60.31
2018-01-24T10:57:58.027Z,59.29
2018-01-24T10:58:58.496Z,59.93
2018-01-24T10:59:58.969Z,58.97
2018-01-24T11:00:59.447Z,58.20
2018-01-24T11:01:59.918Z,58.44
2018-01-24T11:03:00.396Z,58.19
2018-01-24T11:04:00.874Z,56.86
2018-01-24T11:06:01.821Z,57.72
2018-01-24T11:07:02.296Z,56.45
2018-01-24T11:08:02.768Z,56.90
2018-01-24T11:09:03.247Z,55.97
2018-01-24T11:10:03.721Z,56.36
2018-01-24T11:11:04.194Z,55.16
2018-01-24T11:12:04.673Z,56.00
2018-01-24T11:13:05.144Z,54.97
2018-01-24T11:14:05.671Z,54.78
2018-01-24T11:15:06.094Z,54.90
2018-01-24T11:16:06.570Z,54.11
2018-01-24T11:17:07.042Z,53.73
2018-01-24T11:18:07.520Z,53.35
2018-01-24T11:19:07.990Z,53.90
2018-01-24T11:21:08.946Z,52.66
2018-01-24T11:22:09.421Z,52.24
2018-01-24T11:23:09.890Z,53.24
2018-01-24T11:24:10.369Z,53.16
2018-01-24T11:25:10.847Z,52.11
2018-01-24T11:27:11.792Z,52.51
2018-01-24T11:28:12.273Z,52.73
2018-01-24T11:29:12.744Z,53.54
2018-01-24T11:30:13.227Z,52.92
2018-01-24T11:31:13.702Z,53.52
2018-01-24T11:32:14.174Z,51.66
2018-01-24T11:33:14.646Z,51.75
2018-01-24T11:34:15.132Z,52.39
2018-01-24T11:35:15.601Z,52.73
2018-01-24T11:36:16.072Z,51.94
2018-01-24T11:37:16.556Z,51.55
2018-01-24T11:38:17.030Z,51.37
2018-01-24T11:40:17.978Z,51.44
2018-01-24T11:41:18.450Z,51.95
2018-01-24T11:42:18.930Z,52.83
2018-01-24T11:43:19.407Z,51.77
2018-01-24T11:44:19.880Z,51.89
2018-01-24T11:45:20.354Z,51.35
2018-01-24T11:46:20.833Z,51.35
2018-01-24T11:47:21.307Z,51.22
2018-01-24T11:48:21.778Z,51.47
2018-01-24T11:49:33.538Z,51.38
2018-01-24T11:50:22.735Z,51.16
2018-01-24T11:51:23.208Z,51.01
2018-01-24T11:52:23.684Z,51.28
2018-01-24T11:54:24.633Z,51.28
2018-01-24T11:55:25.106Z,51.35
2018-01-24T11:56:25.575Z,51.13
2018-01-24T13:40:32.749Z,58.39
2018-01-24T13:41:33.222Z,58.45
2018-01-24T13:42:33.696Z,58.42
2018-01-24T13:43:34.165Z,58.42
2018-01-24T13:44:34.673Z,58.39
2018-01-24T13:45:35.115Z,58.49
2018-01-24T13:46:35.582Z,58.61
2018-01-24T13:47:36.060Z,58.84
2018-01-24T13:48:36.529Z,58.81
2018-01-24T13:49:36.999Z,59.00
2018-01-24T13:50:37.473Z,58.97
2018-01-24T13:52:38.417Z,59.22
2018-01-24T13:53:38.885Z,59.22
2018-01-24T13:54:39.364Z,59.25
2018-01-24T13:55:39.826Z,59.45
2018-01-24T13:56:40.303Z,59.36
2018-01-24T13:57:40.774Z,59.13
2018-01-24T13:58:41.247Z,59.32
2018-01-24T13:59:41.717Z,59.55
2018-01-24T14:00:42.188Z,59.43
2018-01-24T14:01:42.655Z,59.46
2018-01-24T14:02:43.131Z,59.57
2018-01-24T14:03:43.602Z,59.68
2018-01-24T14:05:44.545Z,59.59
2018-01-24T14:06:45.017Z,59.56
2018-01-24T14:07:45.488Z,59.76
2018-01-24T14:08:45.960Z,59.81
2018-01-24T14:09:46.431Z,60.06
2018-01-24T14:11:47.375Z,59.92
2018-01-24T14:12:47.843Z,60.00
2018-01-24T14:14:48.790Z,60.13
2018-01-24T14:15:49.277Z,60.16
2018-01-24T14:16:49.736Z,60.01
2018-01-24T14:17:50.208Z,60.04
2018-01-24T14:18:50.679Z,60.23
2018-01-24T14:19:51.147Z,60.25
2018-01-24T14:20:51.625Z,60.11
2018-01-24T14:21:52.105Z,60.22
2018-01-24T14:22:52.571Z,60.25
2018-01-24T14:23:53.042Z,60.36
2018-01-24T14:24:53.515Z,60.41
2018-01-24T14:25:53.984Z,60.27
2018-01-24T14:26:54.464Z,60.40
2018-01-24T14:27:54.935Z,60.52
2018-01-24T14:28:55.408Z,60.54
2018-01-24T14:29:55.882Z,60.39
2018-01-24T14:30:56.355Z,60.53
2018-01-24T14:32:57.296Z,60.38
2018-01-24T14:33:57.775Z,60.41
2018-01-24T14:34:58.247Z,60.52
2018-01-24T14:37:10.677Z,60.35
2018-01-24T14:37:59.670Z,60.54
2018-01-24T14:39:00.147Z,60.31
2018-01-24T14:40:00.614Z,60.56
2018-01-24T14:41:01.087Z,60.68
2018-01-24T14:42:13.707Z,60.64
2018-01-24T14:43:02.039Z,60.72
2018-01-24T14:44:02.512Z,60.75
2018-01-24T14:45:02.982Z,60.52
2018-01-24T14:48:04.418Z,60.57
2018-01-24T14:49:04.883Z,60.94
2018-01-24T14:50:05.357Z,61.02
2018-01-24T14:51:05.826Z,60.93
2018-01-24T14:52:06.307Z,61.12
2018-01-24T14:53:06.782Z,61.26
2018-01-24T14:54:07.254Z,61.37
2018-01-24T14:55:07.732Z,61.40
2018-01-24T14:56:08.203Z,61.53
2018-01-24T14:57:08.678Z,61.59
2018-01-24T14:58:09.153Z,61.56
2018-01-24T14:59:09.629Z,61.78
2018-01-24T15:00:10.104Z,61.89
2018-01-24T15:01:10.577Z,61.80
2018-01-24T15:02:11.052Z,61.94
2018-01-24T15:03:11.526Z,61.96
2018-01-24T15:04:12.001Z,61.96
2018-01-24T15:05:12.475Z,61.90
2018-01-24T15:07:13.422Z,62.01
2018-01-24T15:08:13.901Z,62.14
2018-01-24T15:09:14.377Z,62.17
2018-01-24T15:10:14.849Z,62.30
2018-01-24T15:11:15.326Z,62.36
2018-01-24T15:12:15.799Z,62.38
2018-01-24T15:13:16.270Z,62.49
2018-01-24T15:14:16.752Z,62.46
2018-01-24T15:15:17.227Z,62.51
2018-01-24T15:17:18.176Z,62.59
2018-01-24T15:18:18.651Z,62.64
2018-01-24T15:19:19.127Z,62.53
2018-01-24T15:20:19.601Z,62.53
2018-01-24T15:21:20.073Z,62.52
2018-01-24T15:22:20.552Z,62.68
2018-01-24T15:23:21.031Z,62.63
2018-01-24T15:24:21.503Z,62.54
2018-01-24T15:25:21.977Z,62.59
2018-01-24T15:26:22.455Z,62.47
2018-01-24T15:27:22.922Z,62.50
2018-01-24T15:28:23.404Z,62.47
2018-01-24T15:29:23.878Z,62.46
2018-01-24T15:30:24.354Z,62.46
2018-01-24T15:31:24.824Z,62.57
2018-01-24T15:32:25.304Z,62.51
2018-01-24T15:34:26.252Z,62.64
2018-01-24T15:35:26.727Z,62.72
2018-01-24T15:37:27.673Z,62.83
2018-01-24T15:38:28.144Z,62.83
2018-01-24T15:39:28.622Z,62.91
2018-01-24T15:40:29.095Z,62.90
2018-01-24T15:41:29.567Z,62.98
2018-01-24T15:42:30.039Z,63.00
2018-01-24T15:43:30.514Z,63.00
2018-01-24T15:44:30.985Z,63.08
2018-01-24T15:45:31.458Z,63.10
2018-01-24T15:46:31.931Z,63.15
2018-01-24T15:47:32.404Z,63.17
2018-01-24T15:48:32.874Z,63.20
2018-01-24T15:49:33.347Z,63.25
2018-01-24T15:50:33.816Z,63.25
2018-01-24T15:51:34.290Z,63.27
2018-01-24T15:52:34.754Z,63.29
2018-01-24T15:53:35.228Z,63.43
2018-01-24T15:54:35.698Z,63.39
2018-01-24T15:55:36.169Z,63.42